• Join FlightAware (Why Join?)
  • Login
  • US Flag 
Rudolph Flight #1: Arrived! 
01:42AM EST


 

Airport Tracker/Info


-or-


 

Live Flight TrackerFlight Track Log ✈ N700QA ✈ 08-Nov-2013 ✈ KLAS - KLAX

Flight Track Log - Related Links

Times and Time Zones

All times are in EST time to prevent confusion due to time zone crossing. See the N700QA flight status page for this flight to view local times or setup timezone preferences in your user account.

Time Position Orientation Groundspeed Altitude Reporting Facility
EST Latitude Longitude Course Direction KTS MPH feet Rate Location/Type
02:11AM 36.0686 -115.1733 209° Southwest 176 203 3,000  Level Los Angeles Center
02:13AM 36.0089 -115.2150 209° Southwest 236 272 5,800 2,460 Climbing Los Angeles Center
02:13AM 36.0056 -115.2208 235° Southwest 232 267 6,000 1,380 Climbing Los Angeles Center
02:14AM 35.9564 -115.2725 220° Southwest 255 293 7,200 1,860 Climbing Los Angeles Center
02:15AM 35.8794 -115.2911 191° South 271 312 9,700 2,400 Climbing Los Angeles Center
02:16AM 35.8017 -115.3211 197° South 293 337 12,200 2,280 Climbing Los Angeles Center
02:17AM 35.7406 -115.3953 225° Southwest 309 356 14,400 2,100 Climbing Los Angeles Center
02:18AM 35.6786 -115.4675 223° Southwest 308 354 16,500 1,680 Climbing Los Angeles Center
02:19AM 35.6119 -115.5414 222° Southwest 316 364 17,900 1,500 Climbing Los Angeles Center
02:20AM 35.5439 -115.6208 224° Southwest 331 381 19,600 1,620 Climbing Los Angeles Center
02:21AM 35.4733 -115.7006 223° Southwest 340 391 21,200 1,440 Climbing Los Angeles Center
02:22AM 35.4067 -115.7778 223° Southwest 349 402 22,600 1,320 Climbing Los Angeles Center
02:23AM 35.3322 -115.8614 223° Southwest 358 412 23,900 660 Climbing Los Angeles Center
02:24AM 35.2547 -115.9481 222° Southwest 372 428 24,000 60 Climbing Los Angeles Center
02:25AM 35.1756 -116.0389 223° Southwest 388 447 24,100  Climbing Los Angeles Center
02:26AM 35.0947 -116.1278 222° Southwest 390 449 24,000 -60 Descending Los Angeles Center
02:27AM 35.0136 -116.2153 221° Southwest 390 449 24,000  Level Los Angeles Center
02:28AM 34.9367 -116.3033 223° Southwest 385 443 24,000  Level Los Angeles Center
02:29AM 34.8592 -116.3911 223° Southwest 381 438 24,000  Level Los Angeles Center
02:30AM 34.7794 -116.4767 221° Southwest 381 438 24,000  Level Los Angeles Center
02:31AM 34.6792 -116.5703 218° Southwest 379 436 24,000  Level Los Angeles Center
02:32AM 34.5958 -116.6483 218° Southwest 378 435 24,000  Level Los Angeles Center
02:33AM 34.5119 -116.7267 218° Southwest 378 435 24,000 -60 Level Los Angeles Center
02:34AM 34.4297 -116.8053 218° Southwest 377 434 23,900 -660 Descending Los Angeles Center
02:35AM 34.3483 -116.8817 218° Southwest 371 427 22,700 -1,440 Descending Los Angeles Center
02:36AM 34.2669 -116.9561 217° Southwest 367 422 21,000 -1,740 Descending Los Angeles Center
02:37AM 34.1883 -117.0297 218° Southwest 359 413 19,300 -1,500 Descending Los Angeles Center
02:38AM 34.1150 -117.0997 218° Southwest 349 402 18,000 -1,020 Descending Los Angeles Center
02:39AM 34.0667 -117.2000 240° Southwest 324 373 17,400 -1,320 Descending Southern California TRACON
02:40AM 34.0500 -117.2833 256° West 345 397 15,800 -2,340 Descending Southern California TRACON
02:40AM 34.0333 -117.3833 259° West 350 403 13,500 -2,040 Descending Southern California TRACON
02:41AM 34.0167 -117.4833 259° West 315 362 12,200 -840 Descending Southern California TRACON
02:42AM 34.0167 -117.5833 270° West 334 384 12,000 -120 Descending Southern California TRACON
02:43AM 34.0000 -117.6667 256° West 310 357 12,000 -1,020 Level Southern California TRACON
02:44AM 34.0000 -117.7833 270° West 300 345 10,000 -1,920 Descending Southern California TRACON
02:45AM 34.0000 -117.8833 270° West 277 319 8,000 -1,560 Descending Southern California TRACON
02:46AM 33.9833 -117.9500 253° West 231 266 7,100 -1,260 Descending Southern California TRACON
02:47AM 33.9667 -118.0333 256° West 219 252 5,700 -1,260 Descending Southern California TRACON
02:48AM 33.9667 -118.1000 270° West 211 243 4,600 -960 Descending Southern California TRACON
02:49AM 33.9622 -118.1289 259° West 213 245 4,200 -1,080 Descending Los Angeles Center
02:50AM 33.9547 -118.2103 264° West 207 238 2,900 -1,200 Descending Los Angeles Center
02:51AM 33.9478 -118.2744 263° West 201 231 1,900 -1,080 Descending Los Angeles Center
02:52AM 33.9411 -118.3403 263° West 200 230 800 -900 Descending Los Angeles Center
02:53AM 33.9367 -118.3789 262° West 169 194 200 -600 Descending Los Angeles Center
02:55AM 33.9333 -118.4000 259° West  Level FlightAware Approximate
03:02AM 33.9425 -118.4081 259° West  Level Estimated